Time;durP1;ratioP1;P1;durP2;ratioP2;P2;SDS_P1;SDS_P2;PMS_P1;PMS_P2;Temp;Humidity;BMP_temperature;BMP_pressure;BME280_temperature;BME280_humidity;BME280_pressure;Samples;Min_cycle;Max_cycle;Signal;HPM_P1;HPM_P2
2023/10/17 00:04:38;;;;;;;;;;;5.30;99.90;;;;;;21228779;27;19923;-80
2023/10/17 00:24:57;;;;;;;;;;;5.10;99.90;;;;;;21269855;27;19916;-80
2023/10/17 00:34:58;;;;;;;;;;;4.90;99.90;;;;;;21258243;27;20447;-80
2023/10/17 00:44:58;;;;;;;;;;;4.80;99.90;;;;;;21258407;27;19911;-79
2023/10/17 00:55:00;;;;;;;;;;;4.70;99.90;;;;;;21252752;27;19920;-80
2023/10/17 01:05:01;;;;;;;;;;;4.60;99.90;;;;;;21246943;27;19919;-80
2023/10/17 01:15:02;;;;;;;;;;;4.50;99.90;;;;;;21246925;27;19912;-80
2023/10/17 01:25:17;;;;;;;;;;;4.50;99.90;;;;;;21227305;27;19920;-80
2023/10/17 01:35:21;;;;;;;;;;;4.60;99.90;;;;;;21227654;27;19911;-81
2023/10/17 01:45:23;;;;;;;;;;;4.60;99.90;;;;;;21263053;27;19912;-80
2023/10/17 01:55:29;;;;;;;;;;;4.50;99.90;;;;;;21233538;27;19919;-80
2023/10/17 02:05:33;;;;;;;;;;;4.40;99.90;;;;;;21251694;28;19956;-81
2023/10/17 02:15:34;;;;;;;;;;;4.40;99.90;;;;;;21224300;28;20231;-80
2023/10/17 02:25:37;;;;;;;;;;;4.20;99.90;;;;;;21245485;27;19916;-80
2023/10/17 02:35:41;;;;;;;;;;;4.00;99.90;;;;;;21261928;27;20282;-81
2023/10/17 02:45:41;;;;;;;;;;;4.10;99.90;;;;;;21242874;27;19974;-80
2023/10/17 02:55:42;;;;;;;;;;;4.10;99.90;;;;;;21271310;27;19926;-81
2023/10/17 03:05:44;;;;;;;;;;;4.20;99.90;;;;;;21258343;27;19912;-81
2023/10/17 03:15:48;;;;;;;;;;;4.00;99.90;;;;;;21269390;27;19960;-80
2023/10/17 03:25:49;;;;;;;;;;;3.80;99.90;;;;;;21271513;27;19922;-80
2023/10/17 03:46:06;;;;;;;;;;;3.60;99.90;;;;;;21254860;27;19923;-80
2023/10/17 03:56:11;;;;;;;;;;;3.70;99.90;;;;;;21273838;27;20298;-80
2023/10/17 04:16:17;;;;;;;;;;;3.60;99.90;;;;;;21257800;27;20393;-80
2023/10/17 04:26:27;;;;;;;;;;;3.40;99.90;;;;;;21265082;27;19964;-80
2023/10/17 04:36:28;;;;;;;;;;;3.50;99.90;;;;;;21194748;27;19968;-80
2023/10/17 04:46:29;;;;;;;;;;;3.40;99.90;;;;;;21206128;27;19915;-78
2023/10/17 04:56:52;;;;;;;;;;;3.50;99.90;;;;;;21187950;27;20428;-80
2023/10/17 06:18:56;;;;;;;;;;;3.20;99.90;;;;;;21222985;27;19922;-80
2023/10/17 06:39:24;;;;;;;;;;;4.10;99.90;;;;;;21182128;27;20007;-79
2023/10/17 06:59:35;;;;;;;;;;;5.10;99.90;;;;;;21252401;27;19961;-79
2023/10/17 07:09:39;;;;;;;;;;;5.10;99.90;;;;;;21236848;27;19912;-79
2023/10/17 07:29:45;;;;;;;;;;;5.90;99.90;;;;;;21267607;27;19960;-81
2023/10/17 07:40:31;;;;;;;;;;;5.70;99.90;;;;;;21227616;27;19924;-79
2023/10/17 07:50:13;;;;;;;;;;;5.50;99.90;;;;;;21230032;27;20012;-79
2023/10/17 08:10:30;;;;;;;;;;;6.00;99.90;;;;;;21271967;27;19912;-80
2023/10/17 08:20:54;;;;;;;;;;;6.90;99.90;;;;;;21265379;27;19964;-80
2023/10/17 08:31:01;;;;;;;;;;;7.10;99.90;;;;;;21238901;27;19979;-79
2023/10/17 08:41:05;;;;;;;;;;;7.30;99.90;;;;;;21240716;27;19974;-80
2023/10/17 08:51:07;;;;;;;;;;;7.80;99.90;;;;;;21205659;27;19988;-80
2023/10/17 09:01:11;;;;;;;;;;;8.50;99.90;;;;;;21214049;27;20399;-80
2023/10/17 09:11:15;;;;;;;;;;;9.40;99.90;;;;;;21247302;27;19920;-81
2023/10/17 09:21:22;;;;;;;;;;;9.40;99.90;;;;;;21230079;27;19915;-79
2023/10/17 09:31:23;;;;;;;;;;;9.50;99.90;;;;;;21179072;27;20279;-81
2023/10/17 09:41:26;;;;;;;;;;;9.40;99.90;;;;;;21223609;27;19930;-79
2023/10/17 09:51:31;;;;;;;;;;;9.80;99.90;;;;;;21219449;28;19970;-80
2023/10/17 10:01:32;;;;;;;;;;;11.40;99.90;;;;;;21220988;27;19915;-80
2023/10/17 10:11:47;;;;;;;;;;;11.20;99.90;;;;;;21223643;28;19919;-81
2023/10/17 10:21:54;;;;;;;;;;;11.80;99.90;;;;;;21225071;28;19915;-81
2023/10/17 10:31:54;;;;;;;;;;;11.90;99.90;;;;;;21224169;27;19926;-80
2023/10/17 10:41:55;;;;;;;;;;;12.20;99.90;;;;;;21210451;28;19916;-79
2023/10/17 10:51:58;;;;;;;;;;;12.60;99.90;;;;;;21216519;27;19911;-81
2023/10/17 11:01:59;;;;;;;;;;;12.20;99.90;;;;;;21233803;27;20018;-80
2023/10/17 11:11:59;;;;;;;;;;;11.90;99.90;;;;;;21238006;27;19911;-81
2023/10/17 11:22:02;;;;;;;;;;;11.70;99.90;;;;;;21217246;27;19922;-82
2023/10/17 11:32:03;;;;;;;;;;;12.80;99.90;;;;;;21205559;27;19916;-80
2023/10/17 11:42:05;;;;;;;;;;;12.70;99.90;;;;;;21252760;27;19920;-80
2023/10/17 11:52:09;;;;;;;;;;;13.00;99.90;;;;;;21254441;27;20007;-81
2023/10/17 12:02:11;;;;;;;;;;;12.80;99.90;;;;;;21222415;27;19923;-80
2023/10/17 12:12:12;;;;;;;;;;;13.10;99.90;;;;;;21252906;27;19912;-81
2023/10/17 12:22:12;;;;;;;;;;;13.60;99.90;;;;;;21208088;27;19916;-80
2023/10/17 12:32:13;;;;;;;;;;;14.30;99.90;;;;;;21207467;27;19922;-80
2023/10/17 12:42:15;;;;;;;;;;;14.30;99.90;;;;;;21228441;27;19920;-80
2023/10/17 12:52:16;;;;;;;;;;;14.40;99.90;;;;;;21221679;27;20301;-80
2023/10/17 13:02:16;;;;;;;;;;;14.90;99.90;;;;;;21204951;27;19915;-80
2023/10/17 13:12:17;;;;;;;;;;;15.30;99.90;;;;;;21212007;27;19918;-80
2023/10/17 13:22:21;;;;;;;;;;;15.00;99.90;;;;;;21186259;27;19916;-80
2023/10/17 13:32:23;;;;;;;;;;;16.70;99.90;;;;;;21218077;27;19915;-80
2023/10/17 13:42:25;;;;;;;;;;;16.10;99.90;;;;;;21202003;27;19946;-79
2023/10/17 13:52:28;;;;;;;;;;;15.80;99.90;;;;;;21208294;28;20212;-81
2023/10/17 14:02:29;;;;;;;;;;;15.10;99.90;;;;;;21221665;28;19946;-81
2023/10/17 14:12:29;;;;;;;;;;;14.90;99.90;;;;;;21203491;27;19911;-80
2023/10/17 14:22:44;;;;;;;;;;;15.60;99.90;;;;;;21207685;27;19916;-80
2023/10/17 14:32:46;;;;;;;;;;;15.10;99.90;;;;;;21219924;27;19923;-81
2023/10/17 14:42:47;;;;;;;;;;;15.30;99.90;;;;;;21215027;27;20045;-81
2023/10/17 14:52:48;;;;;;;;;;;15.10;99.90;;;;;;21209817;27;19912;-80
2023/10/17 15:02:49;;;;;;;;;;;15.10;99.90;;;;;;21196914;27;19922;-81
2023/10/17 15:12:52;;;;;;;;;;;15.60;99.90;;;;;;21205649;27;20559;-80
2023/10/17 15:22:54;;;;;;;;;;;14.90;99.90;;;;;;21219068;27;19960;-81
2023/10/17 15:32:54;;;;;;;;;;;14.30;99.90;;;;;;21207535;27;19923;-81
2023/10/17 15:42:55;;;;;;;;;;;13.50;99.90;;;;;;21200477;27;20006;-80
2023/10/17 15:52:56;;;;;;;;;;;12.90;99.90;;;;;;21175213;27;19927;-80
2023/10/17 16:02:57;;;;;;;;;;;12.60;99.90;;;;;;21167878;27;19916;-80
2023/10/17 16:12:57;;;;;;;;;;;12.40;99.90;;;;;;21189565;27;19953;-80
2023/10/17 16:22:58;;;;;;;;;;;11.90;99.90;;;;;;21200513;27;19922;-80
2023/10/17 16:32:59;;;;;;;;;;;11.50;99.90;;;;;;21194997;27;19923;-80
2023/10/17 16:43:00;;;;;;;;;;;11.20;99.90;;;;;;21196113;27;19929;-81
2023/10/17 16:53:00;;;;;;;;;;;11.10;99.90;;;;;;21211456;27;19957;-80
2023/10/17 17:03:01;;;;;;;;;;;10.80;99.90;;;;;;21190591;27;20433;-80
2023/10/17 17:13:02;;;;;;;;;;;10.50;99.90;;;;;;21193401;27;19911;-80
2023/10/17 17:23:03;;;;;;;;;;;10.30;99.90;;;;;;21193262;27;19923;-80
2023/10/17 17:33:04;;;;;;;;;;;10.10;99.90;;;;;;21184262;27;19923;-81
2023/10/17 17:43:05;;;;;;;;;;;9.90;99.90;;;;;;21215084;27;19925;-80
2023/10/17 17:53:05;;;;;;;;;;;9.90;99.90;;;;;;21198217;28;20282;-80
2023/10/17 18:03:06;;;;;;;;;;;9.70;99.90;;;;;;21203256;27;19915;-81
2023/10/17 18:13:06;;;;;;;;;;;9.50;99.90;;;;;;21227166;27;19911;-79
2023/10/17 18:23:08;;;;;;;;;;;9.30;99.90;;;;;;21204670;27;19962;-80
2023/10/17 18:33:09;;;;;;;;;;;9.10;99.90;;;;;;21208196;27;20001;-81
2023/10/17 18:43:11;;;;;;;;;;;8.90;99.90;;;;;;21239394;27;19983;-80
2023/10/17 18:53:11;;;;;;;;;;;8.70;99.90;;;;;;21218110;27;19958;-80
2023/10/17 19:03:12;;;;;;;;;;;8.70;99.90;;;;;;21209314;27;19915;-80
2023/10/17 19:13:13;;;;;;;;;;;8.60;99.90;;;;;;21211735;27;20504;-80
2023/10/17 19:23:15;;;;;;;;;;;8.60;99.90;;;;;;21196347;27;19930;-80
2023/10/17 19:33:15;;;;;;;;;;;8.40;99.90;;;;;;21171838;27;20384;-79
2023/10/17 19:43:16;;;;;;;;;;;8.30;99.90;;;;;;21177318;27;19920;-80
2023/10/17 19:53:17;;;;;;;;;;;8.10;99.90;;;;;;21157296;27;19915;-79
2023/10/17 20:03:18;;;;;;;;;;;8.10;99.90;;;;;;21149771;27;20286;-79
2023/10/17 20:13:19;;;;;;;;;;;8.00;99.90;;;;;;21173166;27;19931;-79
2023/10/17 20:23:20;;;;;;;;;;;8.00;99.90;;;;;;21165859;27;20029;-80
2023/10/17 20:33:21;;;;;;;;;;;8.00;99.90;;;;;;21179877;27;19920;-80
2023/10/17 20:43:21;;;;;;;;;;;7.80;99.90;;;;;;21170951;27;19930;-79
2023/10/17 20:53:22;;;;;;;;;;;7.70;99.90;;;;;;21181587;27;19915;-80
2023/10/17 21:03:26;;;;;;;;;;;7.70;99.90;;;;;;21159596;27;19916;-79
2023/10/17 21:13:27;;;;;;;;;;;7.60;99.90;;;;;;21171259;27;19947;-79
2023/10/17 21:23:27;;;;;;;;;;;7.60;99.90;;;;;;21161147;27;19934;-80
2023/10/17 21:33:31;;;;;;;;;;;7.50;99.90;;;;;;21176196;27;19988;-80
2023/10/17 21:43:36;;;;;;;;;;;7.40;99.90;;;;;;21167802;27;20432;-79
2023/10/17 21:53:37;;;;;;;;;;;7.40;99.90;;;;;;21160994;28;20010;-79
2023/10/17 22:03:41;;;;;;;;;;;7.30;99.90;;;;;;21170991;27;19958;-79
2023/10/17 22:13:45;;;;;;;;;;;7.20;99.90;;;;;;21190340;28;20378;-79
2023/10/17 22:23:46;;;;;;;;;;;7.10;99.90;;;;;;21181825;28;20016;-78
2023/10/17 22:33:47;;;;;;;;;;;7.10;99.90;;;;;;21186855;28;20126;-80
2023/10/17 22:43:48;;;;;;;;;;;7.00;99.90;;;;;;21217038;27;19930;-80
2023/10/17 22:53:48;;;;;;;;;;;6.70;99.90;;;;;;21210317;27;19979;-79
2023/10/17 23:03:49;;;;;;;;;;;6.70;99.90;;;;;;21202106;27;19916;-79
2023/10/17 23:13:51;;;;;;;;;;;6.70;99.90;;;;;;21204082;27;20354;-79
2023/10/17 23:23:51;;;;;;;;;;;6.60;99.90;;;;;;21207266;27;19920;-79
2023/10/17 23:33:52;;;;;;;;;;;6.50;99.90;;;;;;21208249;27;20439;-79
2023/10/17 23:43:53;;;;;;;;;;;6.50;99.90;;;;;;21219392;27;19921;-79
2023/10/17 23:53:55;;;;;;;;;;;6.40;99.90;;;;;;21201519;27;20417;-79
